Terminal Aerodrome Forecast
Issued by NWS Mt. Holly, NJ

Home | Current Version | Previous Version | Text Only | Print | Product List | Glossary On
Versions: 1 2 3 4 5 6 7 8 9 10 11 12 13 14 15 16 17
000
FTUS41 KPHI 021301 AAA
TAFTTN
TAF AMD
KTTN 021301Z 0213/0312 00000KT 3/4SM BR OVC002
     FM021330 00000KT 2SM BR BKN004
     FM021400 VRB03KT 5SM BR SCT004
     FM021430 20005KT P6SM FEW050
     FM022200 15004KT P6SM SCT250
     FM030300 VRB02KT 5SM BR FEW250=

USA.gov is the U.S. government's official web portal to all federal, state and local government web resources and services.